createdAt,value
2023-01-20T00:00:32.966Z,21.23
2023-01-20T00:04:52.150Z,22.02
2023-01-20T00:09:16.056Z,25.17
2023-01-20T00:13:33.153Z,22.30
2023-01-20T00:17:53.955Z,20.08
2023-01-20T00:22:13.605Z,23.05
2023-01-20T00:26:33.714Z,19.33
2023-01-20T00:30:51.486Z,20.75
2023-01-20T00:35:10.614Z,23.20
2023-01-20T00:39:32.058Z,21.15
2023-01-20T00:43:51.851Z,21.70
2023-01-20T00:48:12.575Z,22.77
2023-01-20T00:52:30.927Z,23.40
2023-01-20T00:56:50.511Z,22.30
2023-01-20T01:01:10.407Z,20.58
2023-01-20T01:05:28.272Z,23.73
2023-01-20T01:09:46.335Z,21.70
2023-01-20T01:14:12.894Z,23.02
2023-01-20T01:18:37.642Z,23.98
2023-01-20T01:23:01.624Z,21.17
2023-01-20T01:27:25.597Z,21.63
2023-01-20T01:31:53.507Z,20.80
2023-01-20T01:36:21.453Z,25.40
2023-01-20T01:40:50.509Z,17.47
2023-01-20T01:45:25.021Z,22.38
2023-01-20T01:49:53.384Z,20.40
2023-01-20T01:54:22.879Z,20.43
2023-01-20T01:58:56.108Z,19.50
2023-01-20T02:03:20.641Z,20.48
2023-01-20T02:07:48.214Z,20.33
2023-01-20T02:12:15.451Z,25.53
2023-01-20T02:16:49.724Z,20.45
2023-01-20T02:22:00.150Z,19.73
2023-01-20T02:26:51.703Z,23.33
2023-01-20T02:31:52.141Z,20.40
2023-01-20T02:36:26.934Z,20.77
2023-01-20T02:40:59.766Z,19.80
2023-01-20T02:45:28.251Z,20.98
2023-01-20T02:49:55.813Z,22.05
2023-01-20T02:54:24.577Z,22.08
2023-01-20T02:58:51.931Z,27.17
2023-01-20T03:03:20.755Z,21.45
2023-01-20T03:07:46.145Z,21.20
2023-01-20T03:12:17.794Z,22.97
2023-01-20T03:16:43.108Z,19.92
2023-01-20T03:21:09.897Z,20.88
2023-01-20T03:25:34.311Z,21.60
2023-01-20T03:29:59.841Z,19.80
2023-01-20T03:34:25.512Z,21.65
2023-01-20T03:38:50.356Z,20.73
2023-01-20T03:43:21.064Z,22.63
2023-01-20T03:48:00.443Z,19.85
2023-01-20T03:52:47.655Z,23.02
2023-01-20T03:57:17.993Z,20.37
2023-01-20T04:01:45.437Z,20.42
2023-01-20T04:06:14.889Z,23.05
2023-01-20T04:10:42.795Z,22.40
2023-01-20T04:15:08.900Z,18.98
2023-01-20T04:19:32.904Z,20.80
2023-01-20T04:24:04.520Z,23.42
2023-01-20T04:28:28.504Z,20.37
2023-01-20T04:32:52.666Z,18.90
2023-01-20T04:37:16.619Z,21.50
2023-01-20T04:41:41.761Z,17.10
2023-01-20T04:46:05.936Z,17.90
2023-01-20T04:50:30.365Z,18.48
2023-01-20T04:54:54.872Z,18.63
2023-01-20T04:59:20.366Z,23.95
2023-01-20T05:03:45.507Z,21.75
2023-01-20T05:08:09.631Z,22.55
2023-01-20T05:12:33.543Z,19.87
2023-01-20T05:16:59.059Z,19.98
2023-01-20T05:21:23.376Z,22.90
2023-01-20T05:25:51.752Z,21.90
2023-01-20T05:30:16.024Z,19.65
2023-01-20T05:34:41.396Z,19.48
2023-01-20T05:39:05.361Z,21.87
2023-01-20T05:43:29.649Z,17.67
2023-01-20T05:47:56.749Z,17.85
2023-01-20T05:52:22.269Z,19.58
2023-01-20T05:56:48.609Z,22.07
2023-01-20T06:01:14.548Z,20.65
2023-01-20T06:05:38.715Z,19.15
2023-01-20T06:10:04.419Z,21.13
2023-01-20T06:14:28.609Z,25.33
2023-01-20T06:18:52.779Z,22.48
2023-01-20T06:23:17.445Z,20.63
2023-01-20T06:27:42.792Z,21.83
2023-01-20T06:32:07.057Z,23.35
2023-01-20T06:36:31.113Z,22.20
2023-01-20T06:40:58.831Z,19.83
2023-01-20T06:45:24.461Z,21.50
2023-01-20T06:49:48.295Z,22.38
2023-01-20T06:54:12.245Z,18.63
2023-01-20T06:58:36.270Z,20.85
2023-01-20T07:02:58.706Z,21.17
2023-01-20T07:07:22.727Z,19.73
2023-01-20T07:11:46.837Z,21.38
2023-01-20T07:16:15.348Z,20.48
2023-01-20T07:20:41.105Z,19.17
2023-01-20T07:25:05.434Z,21.30
2023-01-20T07:29:29.594Z,19.55
2023-01-20T07:33:55.649Z,20.13
2023-01-20T07:38:21.134Z,19.43
2023-01-20T07:42:45.226Z,18.50
2023-01-20T07:47:09.130Z,21.10
2023-01-20T07:51:33.008Z,19.23
2023-01-20T07:56:01.197Z,23.05
2023-01-20T08:00:25.794Z,21.85
2023-01-20T08:04:49.559Z,22.13
2023-01-20T08:09:14.797Z,22.73
2023-01-20T08:13:40.721Z,23.80
2023-01-20T08:18:04.881Z,25.58
2023-01-20T08:22:28.818Z,20.07
2023-01-20T08:26:53.423Z,26.45
2023-01-20T08:31:20.869Z,21.00
2023-01-20T08:35:47.957Z,24.57
2023-01-20T08:40:12.982Z,23.17
2023-01-20T08:44:36.895Z,22.90
2023-01-20T08:49:02.918Z,22.77
2023-01-20T08:53:27.355Z,21.47
2023-01-20T08:57:51.471Z,21.55
2023-01-20T09:02:15.530Z,20.85
2023-01-20T09:06:43.111Z,21.00
2023-01-20T09:11:09.153Z,19.08
2023-01-20T09:15:33.292Z,21.10
2023-01-20T09:19:57.428Z,20.07
2023-01-20T09:24:23.246Z,19.27
2023-01-20T09:28:47.539Z,18.17
2023-01-20T09:33:12.153Z,19.23
2023-01-20T09:37:55.546Z,19.17
2023-01-20T09:42:47.256Z,20.15
2023-01-20T09:47:24.414Z,22.63
2023-01-20T09:52:14.823Z,20.50
2023-01-20T09:56:44.905Z,22.25
2023-01-20T10:01:14.155Z,23.92
2023-01-20T10:05:40.830Z,21.00
2023-01-20T10:10:15.790Z,18.83
2023-01-20T10:14:45.418Z,20.88
2023-01-20T10:19:19.773Z,18.80
2023-01-20T10:23:47.737Z,21.97
2023-01-20T10:28:18.099Z,18.88
2023-01-20T10:32:48.684Z,19.73
2023-01-20T10:37:15.986Z,18.70
2023-01-20T10:41:44.783Z,21.13
2023-01-20T10:46:24.874Z,21.35
2023-01-20T10:51:00.153Z,20.73
2023-01-20T10:55:33.966Z,22.05
2023-01-20T11:00:01.764Z,22.33
2023-01-20T11:04:26.099Z,23.02
2023-01-20T11:08:50.346Z,21.70
2023-01-20T11:13:15.889Z,24.33
2023-01-20T11:17:40.139Z,23.35
2023-01-20T11:22:12.432Z,22.73
2023-01-20T11:26:39.151Z,24.40
2023-01-20T11:31:05.360Z,22.52
2023-01-20T11:35:31.749Z,21.27
2023-01-20T11:40:02.264Z,21.65
2023-01-20T11:44:26.518Z,19.00
2023-01-20T11:49:06.896Z,22.55
2023-01-20T11:53:32.965Z,22.17
2023-01-20T11:57:59.707Z,24.30
2023-01-20T12:02:25.277Z,20.08
2023-01-20T12:06:57.324Z,19.97
2023-01-20T12:11:28.843Z,22.65
2023-01-20T12:15:56.891Z,22.60
2023-01-20T12:20:27.696Z,22.57
2023-01-20T12:25:11.660Z,25.30
2023-01-20T12:29:45.739Z,26.00
2023-01-20T12:34:13.876Z,27.27
2023-01-20T12:38:44.709Z,22.23
2023-01-20T12:43:29.841Z,25.17
2023-01-20T12:48:05.280Z,22.95
2023-01-20T12:52:44.646Z,26.13
2023-01-20T12:57:16.563Z,28.75
2023-01-20T13:01:48.589Z,26.67
2023-01-20T13:06:28.416Z,28.37
2023-01-20T13:11:04.668Z,25.63
2023-01-20T13:15:31.326Z,26.73
2023-01-20T13:20:01.122Z,27.75
2023-01-20T13:24:29.335Z,34.83
2023-01-20T13:28:54.592Z,25.90
2023-01-20T13:33:36.860Z,26.20
2023-01-20T13:38:03.467Z,27.60
2023-01-20T13:42:32.672Z,28.55
2023-01-20T13:46:57.174Z,28.13
2023-01-20T13:51:44.149Z,25.37
2023-01-20T13:56:26.737Z,24.85
2023-01-20T14:00:52.946Z,25.92
2023-01-20T14:05:29.819Z,30.80
2023-01-20T14:09:54.342Z,26.97
2023-01-20T14:14:21.906Z,30.08
2023-01-20T14:18:46.116Z,26.13
2023-01-20T14:23:27.025Z,29.40
2023-01-20T14:27:52.486Z,26.27
2023-01-20T14:32:22.386Z,27.98
2023-01-20T14:36:47.944Z,28.60
2023-01-20T14:41:34.648Z,30.08
2023-01-20T14:45:58.754Z,28.98
2023-01-20T14:50:24.352Z,30.52
2023-01-20T14:54:49.785Z,32.73
2023-01-20T14:59:20.109Z,26.40
2023-01-20T15:03:44.142Z,31.15
2023-01-20T15:08:32.054Z,29.97
2023-01-20T15:12:56.081Z,37.42
2023-01-20T15:17:20.591Z,31.83
2023-01-20T15:21:46.282Z,34.00
2023-01-20T15:26:25.731Z,34.08
2023-01-20T15:30:49.928Z,30.95
2023-01-20T15:35:15.676Z,35.92
2023-01-20T15:39:40.104Z,33.20
2023-01-20T15:44:05.808Z,38.40
2023-01-20T15:48:30.283Z,36.80
2023-01-20T15:52:54.401Z,37.90
2023-01-20T15:57:19.057Z,36.17
2023-01-20T16:01:47.222Z,33.78
2023-01-20T16:06:13.927Z,36.87
2023-01-20T16:10:37.780Z,37.40
2023-01-20T16:15:01.780Z,36.35
2023-01-20T16:19:27.148Z,37.75
2023-01-20T16:23:51.230Z,33.97
2023-01-20T16:28:18.612Z,32.95
2023-01-20T16:32:42.610Z,34.08
2023-01-20T16:37:07.976Z,38.20
2023-01-20T16:41:31.933Z,35.95
2023-01-20T16:45:56.269Z,34.13
2023-01-20T16:50:20.549Z,33.83
2023-01-20T16:54:45.984Z,36.22
2023-01-20T16:59:11.131Z,38.05
2023-01-20T17:03:34.894Z,31.58
2023-01-20T17:07:59.729Z,37.33
2023-01-20T17:12:25.079Z,36.13
2023-01-20T17:16:49.307Z,37.15
2023-01-20T17:21:15.113Z,35.87
2023-01-20T17:25:39.122Z,36.35
2023-01-20T17:30:04.997Z,40.95
2023-01-20T17:34:28.997Z,29.93
2023-01-20T17:38:52.986Z,32.25
2023-01-20T17:43:16.827Z,39.10
2023-01-20T17:47:42.198Z,42.33
2023-01-20T17:52:06.575Z,39.70
2023-01-20T17:56:30.464Z,47.85
2023-01-20T18:00:54.326Z,42.72
2023-01-20T18:05:19.706Z,40.00
2023-01-20T18:09:43.790Z,44.33
2023-01-20T18:14:08.425Z,41.55
2023-01-20T18:18:33.180Z,48.20
2023-01-20T18:22:58.377Z,47.03
2023-01-20T18:27:24.907Z,43.58
2023-01-20T18:31:49.524Z,47.53
2023-01-20T18:36:16.655Z,42.23
2023-01-20T18:40:42.213Z,47.50
2023-01-20T18:45:06.880Z,45.80
2023-01-20T18:49:30.657Z,45.60
2023-01-20T18:53:56.711Z,45.88
2023-01-20T18:58:22.045Z,54.80
2023-01-20T19:02:46.183Z,52.03
2023-01-20T19:07:10.194Z,46.45
2023-01-20T19:11:38.440Z,48.35
2023-01-20T19:16:03.862Z,50.55
2023-01-20T19:20:28.444Z,49.80
2023-01-20T19:24:52.311Z,58.05
2023-01-20T19:29:17.354Z,47.97
2023-01-20T19:33:42.883Z,49.20
2023-01-20T19:38:06.797Z,48.08
2023-01-20T19:42:33.144Z,46.30
2023-01-20T19:47:02.389Z,47.43
2023-01-20T19:51:27.899Z,49.13
2023-01-20T19:55:52.419Z,51.60
2023-01-20T20:00:17.203Z,49.00
2023-01-20T20:04:41.261Z,50.23
2023-01-20T20:09:09.532Z,56.63
2023-01-20T20:13:35.662Z,50.35
2023-01-20T20:18:00.106Z,57.77
2023-01-20T20:22:24.476Z,57.58
2023-01-20T20:26:51.293Z,54.38
2023-01-20T20:31:15.740Z,51.33
2023-01-20T20:35:39.730Z,48.20
2023-01-20T20:40:03.673Z,50.88
2023-01-20T20:44:28.970Z,47.33
2023-01-20T20:48:55.620Z,48.73
2023-01-20T20:53:19.741Z,49.88
2023-01-20T20:57:46.825Z,48.38
2023-01-20T21:02:14.016Z,48.00
2023-01-20T21:06:38.098Z,51.03
2023-01-20T21:11:02.634Z,50.35
2023-01-20T21:15:26.941Z,44.97
2023-01-20T21:19:52.780Z,46.45
2023-01-20T21:24:16.621Z,51.63
2023-01-20T21:28:42.745Z,44.15
2023-01-20T21:33:06.475Z,49.87
2023-01-20T21:37:31.608Z,44.47
2023-01-20T21:41:55.758Z,46.90
2023-01-20T21:46:19.965Z,46.93
2023-01-20T21:51:01.426Z,52.10
2023-01-20T21:55:26.614Z,48.85
2023-01-20T21:59:50.488Z,46.33
2023-01-20T22:04:14.247Z,48.33
2023-01-20T22:08:38.267Z,42.60
2023-01-20T22:13:03.520Z,44.08
2023-01-20T22:17:27.694Z,47.97
2023-01-20T22:21:51.977Z,41.47
2023-01-20T22:26:16.019Z,40.72
2023-01-20T22:30:41.442Z,38.23
2023-01-20T22:35:05.914Z,39.70
2023-01-20T22:39:29.955Z,42.83
2023-01-20T22:43:55.286Z,39.67
2023-01-20T22:48:20.780Z,41.60
2023-01-20T22:52:44.679Z,47.40
2023-01-20T22:57:08.626Z,43.63
2023-01-20T23:01:34.480Z,44.87
2023-01-20T23:06:00.960Z,43.35
2023-01-20T23:10:41.908Z,43.33
2023-01-20T23:15:06.417Z,48.43
2023-01-20T23:19:30.345Z,36.22
2023-01-20T23:23:55.670Z,40.17
2023-01-20T23:28:19.692Z,41.57
2023-01-20T23:32:43.416Z,40.28
2023-01-20T23:37:07.429Z,41.90
2023-01-20T23:41:32.656Z,40.20
2023-01-20T23:46:00.128Z,40.80
2023-01-20T23:50:24.214Z,32.00
2023-01-20T23:54:48.196Z,39.00
2023-01-20T23:59:13.491Z,37.83
